sensor_id;sensor_type;location;lat;lon;timestamp;P1;durP1;ratioP1;P2;durP2;ratioP2
27794;SDS011;15176;50.844;4.412;2023-04-05T00:01:30;13.25;;;7.45;;
27794;SDS011;15176;50.844;4.412;2023-04-05T00:03:56;14.68;;;6.35;;
27794;SDS011;15176;50.844;4.412;2023-04-05T00:06:27;14.32;;;6.93;;
27794;SDS011;15176;50.844;4.412;2023-04-05T00:09:00;14.68;;;6.47;;
27794;SDS011;15176;50.844;4.412;2023-04-05T00:11:28;10.43;;;5.70;;
27794;SDS011;15176;50.844;4.412;2023-04-05T00:14:01;11.73;;;6.18;;
27794;SDS011;15176;50.844;4.412;2023-04-05T00:16:28;17.30;;;7.30;;
27794;SDS011;15176;50.844;4.412;2023-04-05T00:18:55;14.90;;;6.78;;
27794;SDS011;15176;50.844;4.412;2023-04-05T00:21:21;13.63;;;5.35;;
27794;SDS011;15176;50.844;4.412;2023-04-05T00:23:48;14.45;;;6.75;;
27794;SDS011;15176;50.844;4.412;2023-04-05T00:26:23;10.90;;;5.15;;
27794;SDS011;15176;50.844;4.412;2023-04-05T00:28:49;11.48;;;5.93;;
27794;SDS011;15176;50.844;4.412;2023-04-05T00:31:15;12.02;;;6.75;;
27794;SDS011;15176;50.844;4.412;2023-04-05T00:33:42;10.30;;;5.60;;
27794;SDS011;15176;50.844;4.412;2023-04-05T00:36:11;14.88;;;7.20;;
27794;SDS011;15176;50.844;4.412;2023-04-05T00:38:39;16.13;;;8.63;;
27794;SDS011;15176;50.844;4.412;2023-04-05T00:41:05;17.77;;;7.57;;
27794;SDS011;15176;50.844;4.412;2023-04-05T00:43:34;14.82;;;7.28;;
27794;SDS011;15176;50.844;4.412;2023-04-05T00:46:01;14.20;;;8.48;;
27794;SDS011;15176;50.844;4.412;2023-04-05T00:48:26;20.50;;;8.13;;
27794;SDS011;15176;50.844;4.412;2023-04-05T00:50:53;19.17;;;8.40;;
27794;SDS011;15176;50.844;4.412;2023-04-05T00:53:22;14.63;;;7.65;;
27794;SDS011;15176;50.844;4.412;2023-04-05T00:55:48;14.77;;;8.45;;
27794;SDS011;15176;50.844;4.412;2023-04-05T00:58:17;17.27;;;9.27;;
27794;SDS011;15176;50.844;4.412;2023-04-05T01:00:57;17.98;;;8.50;;
27794;SDS011;15176;50.844;4.412;2023-04-05T01:03:28;16.77;;;8.32;;
27794;SDS011;15176;50.844;4.412;2023-04-05T01:06:03;20.63;;;8.18;;
27794;SDS011;15176;50.844;4.412;2023-04-05T01:11:29;18.25;;;9.20;;
27794;SDS011;15176;50.844;4.412;2023-04-05T01:13:57;13.65;;;8.38;;
27794;SDS011;15176;50.844;4.412;2023-04-05T01:16:26;18.27;;;7.97;;
27794;SDS011;15176;50.844;4.412;2023-04-05T01:18:52;14.30;;;8.10;;
27794;SDS011;15176;50.844;4.412;2023-04-05T01:21:38;15.25;;;8.02;;
27794;SDS011;15176;50.844;4.412;2023-04-05T01:27:07;14.95;;;8.18;;
27794;SDS011;15176;50.844;4.412;2023-04-05T01:30:08;13.75;;;7.25;;
27794;SDS011;15176;50.844;4.412;2023-04-05T01:33:24;15.18;;;7.40;;
27794;SDS011;15176;50.844;4.412;2023-04-05T01:35:58;17.23;;;7.32;;
27794;SDS011;15176;50.844;4.412;2023-04-05T01:38:32;19.15;;;6.88;;
27794;SDS011;15176;50.844;4.412;2023-04-05T01:41:02;15.73;;;7.50;;
27794;SDS011;15176;50.844;4.412;2023-04-05T01:43:28;15.50;;;7.18;;
27794;SDS011;15176;50.844;4.412;2023-04-05T01:45:57;15.70;;;7.05;;
27794;SDS011;15176;50.844;4.412;2023-04-05T01:48:23;16.98;;;7.38;;
27794;SDS011;15176;50.844;4.412;2023-04-05T01:50:48;16.55;;;6.75;;
27794;SDS011;15176;50.844;4.412;2023-04-05T01:53:14;13.90;;;7.28;;
27794;SDS011;15176;50.844;4.412;2023-04-05T01:55:40;13.73;;;7.03;;
27794;SDS011;15176;50.844;4.412;2023-04-05T01:58:06;15.35;;;7.03;;
27794;SDS011;15176;50.844;4.412;2023-04-05T02:00:33;12.73;;;6.10;;
27794;SDS011;15176;50.844;4.412;2023-04-05T02:02:59;15.43;;;7.45;;
27794;SDS011;15176;50.844;4.412;2023-04-05T02:05:25;13.77;;;6.38;;
27794;SDS011;15176;50.844;4.412;2023-04-05T02:07:53;12.35;;;6.80;;
27794;SDS011;15176;50.844;4.412;2023-04-05T02:10:19;14.55;;;6.80;;
27794;SDS011;15176;50.844;4.412;2023-04-05T02:12:46;11.93;;;6.72;;
27794;SDS011;15176;50.844;4.412;2023-04-05T02:15:15;12.15;;;7.28;;
27794;SDS011;15176;50.844;4.412;2023-04-05T02:17:40;13.10;;;7.20;;
27794;SDS011;15176;50.844;4.412;2023-04-05T02:20:10;13.80;;;6.90;;
27794;SDS011;15176;50.844;4.412;2023-04-05T02:22:36;12.30;;;6.75;;
27794;SDS011;15176;50.844;4.412;2023-04-05T02:25:04;14.95;;;7.03;;
27794;SDS011;15176;50.844;4.412;2023-04-05T02:27:34;13.10;;;6.30;;
27794;SDS011;15176;50.844;4.412;2023-04-05T02:30:00;19.40;;;6.97;;
27794;SDS011;15176;50.844;4.412;2023-04-05T02:32:25;13.30;;;6.90;;
27794;SDS011;15176;50.844;4.412;2023-04-05T02:34:51;13.65;;;6.32;;
27794;SDS011;15176;50.844;4.412;2023-04-05T02:37:18;11.75;;;6.53;;
27794;SDS011;15176;50.844;4.412;2023-04-05T02:39:44;13.90;;;6.22;;
27794;SDS011;15176;50.844;4.412;2023-04-05T02:42:10;12.98;;;6.13;;
27794;SDS011;15176;50.844;4.412;2023-04-05T02:44:36;11.93;;;6.13;;
27794;SDS011;15176;50.844;4.412;2023-04-05T02:47:01;11.68;;;5.65;;
27794;SDS011;15176;50.844;4.412;2023-04-05T02:49:27;11.02;;;6.25;;
27794;SDS011;15176;50.844;4.412;2023-04-05T02:51:53;12.07;;;5.75;;
27794;SDS011;15176;50.844;4.412;2023-04-05T02:54:20;14.35;;;6.07;;
27794;SDS011;15176;50.844;4.412;2023-04-05T02:56:46;13.60;;;6.30;;
27794;SDS011;15176;50.844;4.412;2023-04-05T02:59:17;10.63;;;5.72;;
27794;SDS011;15176;50.844;4.412;2023-04-05T03:01:42;11.18;;;6.03;;
27794;SDS011;15176;50.844;4.412;2023-04-05T03:04:17;12.57;;;6.30;;
27794;SDS011;15176;50.844;4.412;2023-04-05T03:06:43;10.82;;;5.50;;
27794;SDS011;15176;50.844;4.412;2023-04-05T03:09:13;12.90;;;5.97;;
27794;SDS011;15176;50.844;4.412;2023-04-05T03:11:39;12.25;;;6.10;;
27794;SDS011;15176;50.844;4.412;2023-04-05T03:14:05;12.93;;;5.47;;
27794;SDS011;15176;50.844;4.412;2023-04-05T03:16:39;11.18;;;5.72;;
27794;SDS011;15176;50.844;4.412;2023-04-05T03:19:06;13.68;;;6.13;;
27794;SDS011;15176;50.844;4.412;2023-04-05T03:21:33;12.77;;;5.85;;
27794;SDS011;15176;50.844;4.412;2023-04-05T03:23:58;9.82;;;5.20;;
27794;SDS011;15176;50.844;4.412;2023-04-05T03:26:24;13.25;;;5.53;;
27794;SDS011;15176;50.844;4.412;2023-04-05T03:28:50;12.40;;;5.75;;
27794;SDS011;15176;50.844;4.412;2023-04-05T03:31:16;10.32;;;5.38;;
27794;SDS011;15176;50.844;4.412;2023-04-05T03:33:41;12.48;;;6.30;;
27794;SDS011;15176;50.844;4.412;2023-04-05T03:36:10;13.00;;;5.90;;
27794;SDS011;15176;50.844;4.412;2023-04-05T03:38:42;12.57;;;5.93;;
27794;SDS011;15176;50.844;4.412;2023-04-05T03:41:09;13.23;;;5.85;;
27794;SDS011;15176;50.844;4.412;2023-04-05T03:43:35;12.52;;;5.88;;
27794;SDS011;15176;50.844;4.412;2023-04-05T03:46:00;12.40;;;5.82;;
27794;SDS011;15176;50.844;4.412;2023-04-05T03:48:26;12.77;;;6.10;;
27794;SDS011;15176;50.844;4.412;2023-04-05T03:50:52;13.23;;;6.32;;
27794;SDS011;15176;50.844;4.412;2023-04-05T03:53:17;12.75;;;6.97;;
27794;SDS011;15176;50.844;4.412;2023-04-05T03:55:43;14.73;;;6.63;;
27794;SDS011;15176;50.844;4.412;2023-04-05T03:58:14;14.98;;;7.10;;
27794;SDS011;15176;50.844;4.412;2023-04-05T04:00:40;16.13;;;7.10;;
27794;SDS011;15176;50.844;4.412;2023-04-05T04:03:06;20.75;;;7.13;;
27794;SDS011;15176;50.844;4.412;2023-04-05T04:05:33;17.67;;;7.05;;
27794;SDS011;15176;50.844;4.412;2023-04-05T04:08:03;13.20;;;7.10;;
27794;SDS011;15176;50.844;4.412;2023-04-05T04:10:33;16.40;;;7.47;;
27794;SDS011;15176;50.844;4.412;2023-04-05T04:12:59;14.15;;;7.25;;
27794;SDS011;15176;50.844;4.412;2023-04-05T04:15:25;13.88;;;7.38;;
27794;SDS011;15176;50.844;4.412;2023-04-05T04:17:50;15.57;;;7.57;;
27794;SDS011;15176;50.844;4.412;2023-04-05T04:20:16;14.95;;;7.38;;
27794;SDS011;15176;50.844;4.412;2023-04-05T04:22:42;14.98;;;7.13;;
27794;SDS011;15176;50.844;4.412;2023-04-05T04:25:08;18.48;;;8.75;;
27794;SDS011;15176;50.844;4.412;2023-04-05T04:27:39;19.42;;;8.15;;
27794;SDS011;15176;50.844;4.412;2023-04-05T04:30:09;16.08;;;6.75;;
27794;SDS011;15176;50.844;4.412;2023-04-05T04:32:36;19.70;;;7.22;;
27794;SDS011;15176;50.844;4.412;2023-04-05T04:35:15;16.63;;;7.53;;
27794;SDS011;15176;50.844;4.412;2023-04-05T04:37:56;29.30;;;13.65;;
27794;SDS011;15176;50.844;4.412;2023-04-05T04:40:27;16.02;;;8.45;;
27794;SDS011;15176;50.844;4.412;2023-04-05T04:43:02;18.52;;;7.88;;
27794;SDS011;15176;50.844;4.412;2023-04-05T04:45:47;15.90;;;6.80;;
27794;SDS011;15176;50.844;4.412;2023-04-05T04:48:14;11.82;;;6.50;;
27794;SDS011;15176;50.844;4.412;2023-04-05T04:50:41;14.73;;;7.32;;
27794;SDS011;15176;50.844;4.412;2023-04-05T04:53:08;15.10;;;7.68;;
27794;SDS011;15176;50.844;4.412;2023-04-05T04:55:34;16.80;;;7.95;;
27794;SDS011;15176;50.844;4.412;2023-04-05T04:58:00;14.32;;;7.28;;
27794;SDS011;15176;50.844;4.412;2023-04-05T05:00:33;15.20;;;7.35;;
27794;SDS011;15176;50.844;4.412;2023-04-05T05:02:59;21.23;;;8.73;;
27794;SDS011;15176;50.844;4.412;2023-04-05T05:05:25;19.00;;;8.30;;
27794;SDS011;15176;50.844;4.412;2023-04-05T05:07:51;18.05;;;7.50;;
27794;SDS011;15176;50.844;4.412;2023-04-05T05:10:17;14.07;;;6.55;;
27794;SDS011;15176;50.844;4.412;2023-04-05T05:12:44;15.98;;;6.55;;
27794;SDS011;15176;50.844;4.412;2023-04-05T05:15:10;14.88;;;6.97;;
27794;SDS011;15176;50.844;4.412;2023-04-05T05:17:36;15.43;;;7.38;;
27794;SDS011;15176;50.844;4.412;2023-04-05T05:20:03;12.98;;;6.80;;
27794;SDS011;15176;50.844;4.412;2023-04-05T05:22:33;12.02;;;6.28;;
27794;SDS011;15176;50.844;4.412;2023-04-05T05:24:59;21.95;;;10.20;;
27794;SDS011;15176;50.844;4.412;2023-04-05T05:27:24;17.42;;;8.32;;
27794;SDS011;15176;50.844;4.412;2023-04-05T05:29:50;21.08;;;9.63;;
27794;SDS011;15176;50.844;4.412;2023-04-05T05:32:16;20.13;;;9.60;;
27794;SDS011;15176;50.844;4.412;2023-04-05T05:34:41;24.90;;;11.68;;
27794;SDS011;15176;50.844;4.412;2023-04-05T05:37:09;20.95;;;10.27;;
27794;SDS011;15176;50.844;4.412;2023-04-05T05:39:37;22.08;;;6.25;;
27794;SDS011;15176;50.844;4.412;2023-04-05T05:42:03;18.38;;;9.80;;
27794;SDS011;15176;50.844;4.412;2023-04-05T05:44:29;23.48;;;8.38;;
27794;SDS011;15176;50.844;4.412;2023-04-05T05:46:55;16.73;;;9.32;;
27794;SDS011;15176;50.844;4.412;2023-04-05T05:49:22;17.92;;;8.10;;
27794;SDS011;15176;50.844;4.412;2023-04-05T05:51:48;22.05;;;9.20;;
27794;SDS011;15176;50.844;4.412;2023-04-05T05:54:15;22.90;;;9.27;;
27794;SDS011;15176;50.844;4.412;2023-04-05T05:56:40;23.27;;;9.32;;
27794;SDS011;15176;50.844;4.412;2023-04-05T05:59:06;20.30;;;8.88;;
27794;SDS011;15176;50.844;4.412;2023-04-05T06:01:32;19.50;;;7.28;;
27794;SDS011;15176;50.844;4.412;2023-04-05T06:04:11;21.70;;;8.05;;
27794;SDS011;15176;50.844;4.412;2023-04-05T06:06:37;14.02;;;7.75;;
27794;SDS011;15176;50.844;4.412;2023-04-05T06:09:04;18.73;;;8.00;;
27794;SDS011;15176;50.844;4.412;2023-04-05T06:11:29;14.63;;;7.70;;
27794;SDS011;15176;50.844;4.412;2023-04-05T06:13:55;18.73;;;8.48;;
27794;SDS011;15176;50.844;4.412;2023-04-05T06:16:21;16.17;;;5.50;;
27794;SDS011;15176;50.844;4.412;2023-04-05T06:18:47;20.35;;;9.65;;
27794;SDS011;15176;50.844;4.412;2023-04-05T06:21:13;21.60;;;9.18;;
27794;SDS011;15176;50.844;4.412;2023-04-05T06:23:40;26.65;;;9.68;;
27794;SDS011;15176;50.844;4.412;2023-04-05T06:26:06;19.10;;;8.75;;
27794;SDS011;15176;50.844;4.412;2023-04-05T06:28:32;21.38;;;9.60;;
27794;SDS011;15176;50.844;4.412;2023-04-05T06:30:58;21.33;;;9.10;;
27794;SDS011;15176;50.844;4.412;2023-04-05T06:33:24;21.58;;;9.15;;
27794;SDS011;15176;50.844;4.412;2023-04-05T06:35:50;21.00;;;8.70;;
27794;SDS011;15176;50.844;4.412;2023-04-05T06:38:16;25.05;;;10.48;;
27794;SDS011;15176;50.844;4.412;2023-04-05T06:40:42;23.95;;;9.05;;
27794;SDS011;15176;50.844;4.412;2023-04-05T06:43:08;21.17;;;8.82;;
27794;SDS011;15176;50.844;4.412;2023-04-05T06:45:35;30.17;;;9.70;;
27794;SDS011;15176;50.844;4.412;2023-04-05T06:48:01;23.83;;;9.02;;
27794;SDS011;15176;50.844;4.412;2023-04-05T06:50:26;24.50;;;9.60;;
27794;SDS011;15176;50.844;4.412;2023-04-05T06:52:52;22.48;;;9.80;;
27794;SDS011;15176;50.844;4.412;2023-04-05T06:55:18;31.33;;;9.95;;
27794;SDS011;15176;50.844;4.412;2023-04-05T06:57:43;28.15;;;10.52;;
27794;SDS011;15176;50.844;4.412;2023-04-05T07:00:09;23.00;;;9.75;;
27794;SDS011;15176;50.844;4.412;2023-04-05T07:02:37;24.52;;;9.32;;
27794;SDS011;15176;50.844;4.412;2023-04-05T07:05:03;17.73;;;9.82;;
27794;SDS011;15176;50.844;4.412;2023-04-05T07:07:33;23.60;;;9.93;;
27794;SDS011;15176;50.844;4.412;2023-04-05T07:10:03;17.77;;;8.98;;
27794;SDS011;15176;50.844;4.412;2023-04-05T07:12:29;19.23;;;9.30;;
27794;SDS011;15176;50.844;4.412;2023-04-05T07:14:56;24.52;;;10.13;;
27794;SDS011;15176;50.844;4.412;2023-04-05T07:17:23;18.02;;;8.90;;
27794;SDS011;15176;50.844;4.412;2023-04-05T07:19:49;18.95;;;8.98;;
27794;SDS011;15176;50.844;4.412;2023-04-05T07:22:15;17.40;;;9.32;;
27794;SDS011;15176;50.844;4.412;2023-04-05T07:24:41;19.92;;;9.18;;
27794;SDS011;15176;50.844;4.412;2023-04-05T07:27:09;19.88;;;9.63;;
27794;SDS011;15176;50.844;4.412;2023-04-05T07:29:35;15.98;;;8.70;;
27794;SDS011;15176;50.844;4.412;2023-04-05T07:32:04;22.92;;;10.25;;
27794;SDS011;15176;50.844;4.412;2023-04-05T07:34:34;19.52;;;9.35;;
27794;SDS011;15176;50.844;4.412;2023-04-05T07:37:00;19.23;;;9.48;;
27794;SDS011;15176;50.844;4.412;2023-04-05T07:39:27;19.92;;;10.23;;
27794;SDS011;15176;50.844;4.412;2023-04-05T07:41:53;24.20;;;10.13;;
27794;SDS011;15176;50.844;4.412;2023-04-05T07:44:19;17.85;;;9.60;;
27794;SDS011;15176;50.844;4.412;2023-04-05T07:46:45;17.50;;;9.27;;
27794;SDS011;15176;50.844;4.412;2023-04-05T07:49:11;22.55;;;10.13;;
27794;SDS011;15176;50.844;4.412;2023-04-05T07:51:39;21.85;;;10.02;;
27794;SDS011;15176;50.844;4.412;2023-04-05T07:54:07;17.85;;;9.73;;
27794;SDS011;15176;50.844;4.412;2023-04-05T07:56:33;20.17;;;8.93;;
27794;SDS011;15176;50.844;4.412;2023-04-05T07:59:01;23.60;;;8.98;;
27794;SDS011;15176;50.844;4.412;2023-04-05T08:01:27;17.33;;;9.02;;
27794;SDS011;15176;50.844;4.412;2023-04-05T08:03:53;19.98;;;9.25;;
27794;SDS011;15176;50.844;4.412;2023-04-05T08:06:21;22.08;;;9.23;;
27794;SDS011;15176;50.844;4.412;2023-04-05T08:08:48;21.83;;;9.15;;
27794;SDS011;15176;50.844;4.412;2023-04-05T08:11:14;15.07;;;8.50;;
27794;SDS011;15176;50.844;4.412;2023-04-05T08:13:40;16.23;;;7.43;;
27794;SDS011;15176;50.844;4.412;2023-04-05T08:16:06;14.43;;;7.18;;
27794;SDS011;15176;50.844;4.412;2023-04-05T08:18:33;14.55;;;6.82;;
27794;SDS011;15176;50.844;4.412;2023-04-05T08:20:59;13.63;;;6.47;;
27794;SDS011;15176;50.844;4.412;2023-04-05T08:23:25;14.10;;;6.65;;
27794;SDS011;15176;50.844;4.412;2023-04-05T08:25:55;12.48;;;6.95;;
27794;SDS011;15176;50.844;4.412;2023-04-05T08:28:21;15.45;;;7.43;;
27794;SDS011;15176;50.844;4.412;2023-04-05T08:30:46;15.40;;;7.35;;
27794;SDS011;15176;50.844;4.412;2023-04-05T08:33:12;14.57;;;7.07;;
27794;SDS011;15176;50.844;4.412;2023-04-05T08:35:38;15.70;;;6.93;;
27794;SDS011;15176;50.844;4.412;2023-04-05T08:38:08;14.13;;;7.53;;
27794;SDS011;15176;50.844;4.412;2023-04-05T08:45:50;14.43;;;8.25;;
27794;SDS011;15176;50.844;4.412;2023-04-05T08:48:17;15.07;;;7.30;;
27794;SDS011;15176;50.844;4.412;2023-04-05T08:50:50;12.98;;;7.30;;
27794;SDS011;15176;50.844;4.412;2023-04-05T08:53:17;14.73;;;7.53;;
27794;SDS011;15176;50.844;4.412;2023-04-05T08:55:43;13.05;;;8.00;;
27794;SDS011;15176;50.844;4.412;2023-04-05T08:58:14;14.82;;;7.57;;
27794;SDS011;15176;50.844;4.412;2023-04-05T09:00:41;17.13;;;7.47;;
27794;SDS011;15176;50.844;4.412;2023-04-05T09:03:11;15.18;;;7.68;;
27794;SDS011;15176;50.844;4.412;2023-04-05T09:05:45;15.07;;;6.80;;
27794;SDS011;15176;50.844;4.412;2023-04-05T09:08:14;12.75;;;7.03;;
27794;SDS011;15176;50.844;4.412;2023-04-05T09:10:40;14.48;;;7.43;;
27794;SDS011;15176;50.844;4.412;2023-04-05T09:13:06;11.15;;;7.30;;
27794;SDS011;15176;50.844;4.412;2023-04-05T09:15:36;13.88;;;7.53;;
27794;SDS011;15176;50.844;4.412;2023-04-05T09:18:02;12.68;;;7.72;;
27794;SDS011;15176;50.844;4.412;2023-04-05T09:20:28;19.10;;;8.00;;
27794;SDS011;15176;50.844;4.412;2023-04-05T09:22:55;17.45;;;7.40;;
27794;SDS011;15176;50.844;4.412;2023-04-05T09:27:56;14.70;;;7.40;;
27794;SDS011;15176;50.844;4.412;2023-04-05T09:30:26;15.80;;;8.20;;
27794;SDS011;15176;50.844;4.412;2023-04-05T09:32:53;14.77;;;7.70;;
27794;SDS011;15176;50.844;4.412;2023-04-05T09:35:23;18.13;;;7.95;;
27794;SDS011;15176;50.844;4.412;2023-04-05T09:37:57;13.80;;;7.85;;
27794;SDS011;15176;50.844;4.412;2023-04-05T09:40:38;13.18;;;7.20;;
27794;SDS011;15176;50.844;4.412;2023-04-05T09:43:06;16.02;;;6.97;;
27794;SDS011;15176;50.844;4.412;2023-04-05T09:45:37;14.95;;;8.45;;
27794;SDS011;15176;50.844;4.412;2023-04-05T09:48:05;14.95;;;7.95;;
27794;SDS011;15176;50.844;4.412;2023-04-05T09:50:31;18.60;;;9.30;;
27794;SDS011;15176;50.844;4.412;2023-04-05T09:55:42;14.05;;;7.15;;
27794;SDS011;15176;50.844;4.412;2023-04-05T09:58:12;13.18;;;7.70;;
27794;SDS011;15176;50.844;4.412;2023-04-05T10:00:48;13.73;;;7.93;;
27794;SDS011;15176;50.844;4.412;2023-04-05T10:03:18;13.60;;;7.40;;
27794;SDS011;15176;50.844;4.412;2023-04-05T10:05:45;14.57;;;7.80;;
27794;SDS011;15176;50.844;4.412;2023-04-05T10:08:11;15.38;;;8.05;;
27794;SDS011;15176;50.844;4.412;2023-04-05T10:10:46;12.32;;;7.60;;
27794;SDS011;15176;50.844;4.412;2023-04-05T10:13:14;12.40;;;7.57;;
27794;SDS011;15176;50.844;4.412;2023-04-05T10:15:41;12.52;;;7.70;;
27794;SDS011;15176;50.844;4.412;2023-04-05T10:18:20;11.73;;;6.45;;
27794;SDS011;15176;50.844;4.412;2023-04-05T10:20:51;12.60;;;6.53;;
27794;SDS011;15176;50.844;4.412;2023-04-05T10:23:26;16.80;;;7.90;;
27794;SDS011;15176;50.844;4.412;2023-04-05T10:26:10;16.30;;;7.45;;
27794;SDS011;15176;50.844;4.412;2023-04-05T10:28:47;16.35;;;8.07;;
27794;SDS011;15176;50.844;4.412;2023-04-05T10:34:38;14.05;;;7.90;;
27794;SDS011;15176;50.844;4.412;2023-04-05T10:37:11;11.63;;;7.28;;
27794;SDS011;15176;50.844;4.412;2023-04-05T10:39:50;15.13;;;7.63;;
27794;SDS011;15176;50.844;4.412;2023-04-05T10:42:20;14.45;;;7.65;;
27794;SDS011;15176;50.844;4.412;2023-04-05T10:44:51;12.55;;;8.18;;
27794;SDS011;15176;50.844;4.412;2023-04-05T10:47:24;14.70;;;8.10;;
27794;SDS011;15176;50.844;4.412;2023-04-05T10:49:52;15.50;;;8.57;;
27794;SDS011;15176;50.844;4.412;2023-04-05T10:52:24;17.52;;;7.95;;
27794;SDS011;15176;50.844;4.412;2023-04-05T10:54:51;14.90;;;8.02;;
27794;SDS011;15176;50.844;4.412;2023-04-05T10:57:20;12.25;;;7.70;;
27794;SDS011;15176;50.844;4.412;2023-04-05T10:59:47;14.90;;;6.65;;
27794;SDS011;15176;50.844;4.412;2023-04-05T11:02:14;15.68;;;8.48;;
27794;SDS011;15176;50.844;4.412;2023-04-05T11:04:40;14.18;;;7.88;;
27794;SDS011;15176;50.844;4.412;2023-04-05T11:07:10;14.95;;;8.25;;
27794;SDS011;15176;50.844;4.412;2023-04-05T11:18:04;12.77;;;7.68;;
27794;SDS011;15176;50.844;4.412;2023-04-05T11:20:41;13.75;;;7.38;;
27794;SDS011;15176;50.844;4.412;2023-04-05T11:23:18;16.25;;;8.55;;
27794;SDS011;15176;50.844;4.412;2023-04-05T11:25:45;16.40;;;8.23;;
27794;SDS011;15176;50.844;4.412;2023-04-05T11:28:23;13.18;;;8.68;;
27794;SDS011;15176;50.844;4.412;2023-04-05T11:31:17;18.15;;;8.30;;
27794;SDS011;15176;50.844;4.412;2023-04-05T11:36:10;12.38;;;8.15;;
27794;SDS011;15176;50.844;4.412;2023-04-05T11:38:37;15.32;;;8.60;;
27794;SDS011;15176;50.844;4.412;2023-04-05T11:41:06;12.30;;;7.97;;
27794;SDS011;15176;50.844;4.412;2023-04-05T11:43:35;19.80;;;8.90;;
27794;SDS011;15176;50.844;4.412;2023-04-05T11:46:02;14.05;;;8.60;;
27794;SDS011;15176;50.844;4.412;2023-04-05T11:48:29;16.05;;;8.18;;
27794;SDS011;15176;50.844;4.412;2023-04-05T11:50:55;19.50;;;8.35;;
27794;SDS011;15176;50.844;4.412;2023-04-05T11:53:22;72.25;;;10.27;;
27794;SDS011;15176;50.844;4.412;2023-04-05T11:55:49;48.55;;;10.30;;
27794;SDS011;15176;50.844;4.412;2023-04-05T11:58:20;19.35;;;8.90;;
27794;SDS011;15176;50.844;4.412;2023-04-05T12:00:56;13.27;;;8.23;;
27794;SDS011;15176;50.844;4.412;2023-04-05T12:03:22;15.65;;;8.27;;
27794;SDS011;15176;50.844;4.412;2023-04-05T12:05:51;14.77;;;8.43;;
27794;SDS011;15176;50.844;4.412;2023-04-05T12:08:18;21.58;;;8.75;;
27794;SDS011;15176;50.844;4.412;2023-04-05T12:10:54;17.92;;;8.63;;
27794;SDS011;15176;50.844;4.412;2023-04-05T12:13:32;13.70;;;8.48;;
27794;SDS011;15176;50.844;4.412;2023-04-05T12:16:05;17.95;;;8.70;;
27794;SDS011;15176;50.844;4.412;2023-04-05T12:18:34;13.35;;;8.23;;
27794;SDS011;15176;50.844;4.412;2023-04-05T12:21:05;15.25;;;9.13;;
27794;SDS011;15176;50.844;4.412;2023-04-05T12:23:32;19.02;;;8.40;;
27794;SDS011;15176;50.844;4.412;2023-04-05T12:25:58;14.82;;;8.90;;
27794;SDS011;15176;50.844;4.412;2023-04-05T12:28:24;14.65;;;8.80;;
27794;SDS011;15176;50.844;4.412;2023-04-05T12:31:10;14.02;;;8.88;;
27794;SDS011;15176;50.844;4.412;2023-04-05T12:33:36;12.93;;;8.10;;
27794;SDS011;15176;50.844;4.412;2023-04-05T12:36:05;15.25;;;9.10;;
27794;SDS011;15176;50.844;4.412;2023-04-05T12:38:32;17.10;;;8.85;;
27794;SDS011;15176;50.844;4.412;2023-04-05T12:41:01;14.00;;;8.20;;
27794;SDS011;15176;50.844;4.412;2023-04-05T12:43:36;13.32;;;8.30;;
27794;SDS011;15176;50.844;4.412;2023-04-05T12:46:09;13.93;;;8.73;;
27794;SDS011;15176;50.844;4.412;2023-04-05T12:48:48;29.25;;;8.70;;
27794;SDS011;15176;50.844;4.412;2023-04-05T12:51:15;21.17;;;9.15;;
27794;SDS011;15176;50.844;4.412;2023-04-05T12:53:45;42.22;;;10.13;;
27794;SDS011;15176;50.844;4.412;2023-04-05T12:56:12;16.45;;;9.25;;
27794;SDS011;15176;50.844;4.412;2023-04-05T12:58:39;20.40;;;9.43;;
27794;SDS011;15176;50.844;4.412;2023-04-05T13:01:05;18.42;;;10.18;;
27794;SDS011;15176;50.844;4.412;2023-04-05T13:03:31;13.32;;;8.13;;
27794;SDS011;15176;50.844;4.412;2023-04-05T13:05:56;17.48;;;9.00;;
27794;SDS011;15176;50.844;4.412;2023-04-05T13:08:22;16.65;;;9.02;;
27794;SDS011;15176;50.844;4.412;2023-04-05T13:10:48;14.27;;;8.98;;
27794;SDS011;15176;50.844;4.412;2023-04-05T13:13:15;17.33;;;9.60;;
27794;SDS011;15176;50.844;4.412;2023-04-05T13:15:41;25.00;;;8.90;;
27794;SDS011;15176;50.844;4.412;2023-04-05T13:18:08;15.63;;;9.00;;
27794;SDS011;15176;50.844;4.412;2023-04-05T13:20:34;15.30;;;9.82;;
27794;SDS011;15176;50.844;4.412;2023-04-05T13:23:00;29.45;;;9.88;;
27794;SDS011;15176;50.844;4.412;2023-04-05T13:25:26;17.48;;;9.55;;
27794;SDS011;15176;50.844;4.412;2023-04-05T13:27:53;24.88;;;9.77;;
27794;SDS011;15176;50.844;4.412;2023-04-05T13:30:19;31.25;;;11.38;;
27794;SDS011;15176;50.844;4.412;2023-04-05T13:32:45;18.42;;;9.20;;
27794;SDS011;15176;50.844;4.412;2023-04-05T13:35:12;19.42;;;9.20;;
27794;SDS011;15176;50.844;4.412;2023-04-05T13:37:37;17.92;;;10.07;;
27794;SDS011;15176;50.844;4.412;2023-04-05T13:40:03;17.63;;;9.73;;
27794;SDS011;15176;50.844;4.412;2023-04-05T13:42:30;41.95;;;11.43;;
27794;SDS011;15176;50.844;4.412;2023-04-05T13:44:55;17.75;;;10.05;;
27794;SDS011;15176;50.844;4.412;2023-04-05T13:47:21;14.95;;;9.73;;
27794;SDS011;15176;50.844;4.412;2023-04-05T13:49:47;18.27;;;10.18;;
27794;SDS011;15176;50.844;4.412;2023-04-05T13:52:12;17.90;;;10.20;;
27794;SDS011;15176;50.844;4.412;2023-04-05T13:54:38;30.67;;;10.50;;
27794;SDS011;15176;50.844;4.412;2023-04-05T13:57:04;18.30;;;9.73;;
27794;SDS011;15176;50.844;4.412;2023-04-05T13:59:30;119.05;;;15.20;;
27794;SDS011;15176;50.844;4.412;2023-04-05T14:01:56;68.70;;;12.07;;
27794;SDS011;15176;50.844;4.412;2023-04-05T14:04:21;33.13;;;10.77;;
27794;SDS011;15176;50.844;4.412;2023-04-05T14:06:47;30.38;;;10.13;;
27794;SDS011;15176;50.844;4.412;2023-04-05T14:09:13;23.85;;;10.48;;
27794;SDS011;15176;50.844;4.412;2023-04-05T14:11:38;136.35;;;15.45;;
27794;SDS011;15176;50.844;4.412;2023-04-05T14:14:04;117.65;;;15.95;;
27794;SDS011;15176;50.844;4.412;2023-04-05T14:16:30;26.77;;;10.63;;
27794;SDS011;15176;50.844;4.412;2023-04-05T14:18:56;17.67;;;9.88;;
27794;SDS011;15176;50.844;4.412;2023-04-05T14:21:23;17.55;;;10.02;;
27794;SDS011;15176;50.844;4.412;2023-04-05T14:23:49;24.17;;;10.75;;
27794;SDS011;15176;50.844;4.412;2023-04-05T14:26:17;77.97;;;12.60;;
27794;SDS011;15176;50.844;4.412;2023-04-05T14:28:43;21.45;;;11.50;;
27794;SDS011;15176;50.844;4.412;2023-04-05T14:31:08;20.17;;;10.57;;
27794;SDS011;15176;50.844;4.412;2023-04-05T14:33:34;17.45;;;10.50;;
27794;SDS011;15176;50.844;4.412;2023-04-05T14:36:00;24.38;;;10.20;;
27794;SDS011;15176;50.844;4.412;2023-04-05T14:38:25;18.75;;;10.90;;
27794;SDS011;15176;50.844;4.412;2023-04-05T14:40:51;22.67;;;10.38;;
27794;SDS011;15176;50.844;4.412;2023-04-05T14:43:17;20.40;;;11.18;;
27794;SDS011;15176;50.844;4.412;2023-04-05T14:45:43;16.70;;;9.88;;
27794;SDS011;15176;50.844;4.412;2023-04-05T14:48:08;18.55;;;10.70;;
27794;SDS011;15176;50.844;4.412;2023-04-05T14:50:34;18.63;;;9.93;;
27794;SDS011;15176;50.844;4.412;2023-04-05T14:53:00;20.33;;;10.40;;
27794;SDS011;15176;50.844;4.412;2023-04-05T14:55:26;22.92;;;9.68;;
27794;SDS011;15176;50.844;4.412;2023-04-05T14:57:52;34.40;;;10.82;;
27794;SDS011;15176;50.844;4.412;2023-04-05T15:00:18;19.90;;;9.90;;
27794;SDS011;15176;50.844;4.412;2023-04-05T15:02:44;22.58;;;10.85;;
27794;SDS011;15176;50.844;4.412;2023-04-05T15:05:10;21.20;;;10.05;;
27794;SDS011;15176;50.844;4.412;2023-04-05T15:07:37;43.55;;;11.10;;
27794;SDS011;15176;50.844;4.412;2023-04-05T15:10:04;46.88;;;10.57;;